Little Walnut Village, New Mexico
Current Conditions -  °F | °C
As of 7:55 PM on Sunday 21 Dec 2014 (Local Time) from KSVC Reporting Station
Clear Clear  
Wind Chill: 34°   Ceiling: Unl
Heat Index: 41°   Visibility: 10mi
Dew Point: 28°   Wind: 12mph
Humidity: 61%   Direction: 320°NW
Pressure: 30.03"   Gusts: NA
Location:  33.0124°N, 108.286°W
Report Text: KSVC 220255Z AUTO 32010KT 10SM CLR 05/M02 A3003 RMK AO2
Loading
Personal Weather Stations






























Interactive Weather Map New forecast layout! Learn more

10-Day Weather Forecast

Advertisements
Track Severe Weather on mobile